createdAt,value
2022-10-05T00:00:45.128Z,1012.87
2022-10-05T00:02:49.607Z,1012.85
2022-10-05T00:03:49.307Z,1012.84
2022-10-05T00:05:53.151Z,1012.88
2022-10-05T00:06:53.170Z,1012.89
2022-10-05T00:08:57.656Z,1012.90
2022-10-05T00:09:57.190Z,1012.91
2022-10-05T00:11:50.118Z,1012.94
2022-10-05T00:12:50.138Z,1012.95
2022-10-05T00:14:54.622Z,1012.87
2022-10-05T00:15:54.157Z,1012.83
2022-10-05T00:17:58.166Z,1012.80
2022-10-05T00:18:58.182Z,1012.80
2022-10-05T00:21:02.674Z,1012.76
2022-10-05T00:22:02.226Z,1012.71
2022-10-05T00:24:06.232Z,1012.65
2022-10-05T00:25:06.246Z,1012.66
2022-10-05T00:27:10.732Z,1012.69
2022-10-05T00:28:10.305Z,1012.64
2022-10-05T00:30:14.280Z,1012.58
2022-10-05T00:31:14.358Z,1012.57
2022-10-05T00:33:18.783Z,1012.50
2022-10-05T00:34:18.317Z,1012.52
2022-10-05T00:36:22.356Z,1012.50
2022-10-05T00:37:22.356Z,1012.52
2022-10-05T00:39:26.830Z,1012.47
2022-10-05T00:40:26.369Z,1012.52
2022-10-05T00:42:19.304Z,1012.50
2022-10-05T00:43:19.315Z,1012.46
2022-10-05T00:45:23.808Z,1012.52
2022-10-05T00:46:23.416Z,1012.56
2022-10-05T00:48:27.364Z,1012.53
2022-10-05T00:49:27.391Z,1012.54
2022-10-05T00:51:31.866Z,1012.52
2022-10-05T00:52:31.403Z,1012.52
2022-10-05T00:54:35.412Z,1012.50
2022-10-05T00:55:35.431Z,1012.47
2022-10-05T00:57:39.914Z,1012.53
2022-10-05T00:58:39.454Z,1012.51
2022-10-05T01:00:43.455Z,1012.49
2022-10-05T01:01:43.468Z,1012.51
2022-10-05T01:03:47.965Z,1012.55
2022-10-05T01:04:47.503Z,1012.51
2022-10-05T01:06:51.514Z,1012.44
2022-10-05T01:07:51.534Z,1012.42
2022-10-05T01:09:56.024Z,1012.43
2022-10-05T01:10:55.551Z,1012.37
2022-10-05T01:12:59.565Z,1012.37
2022-10-05T01:13:59.584Z,1012.32
2022-10-05T01:16:04.128Z,1012.32
2022-10-05T01:17:03.633Z,1012.31
2022-10-05T01:18:56.779Z,1012.32
2022-10-05T01:19:56.752Z,1012.33
2022-10-05T01:21:50.229Z,1012.29
2022-10-05T01:22:49.697Z,1012.26
2022-10-05T01:24:53.709Z,1012.23
2022-10-05T01:25:53.718Z,1012.27
2022-10-05T01:27:58.261Z,1012.30
2022-10-05T01:28:57.748Z,1012.29
2022-10-05T01:31:01.757Z,1012.32
2022-10-05T01:32:01.767Z,1012.26
2022-10-05T01:34:11.181Z,1012.24
2022-10-05T01:35:05.802Z,1012.25
2022-10-05T01:37:09.807Z,1012.23
2022-10-05T01:38:09.821Z,1012.26
2022-10-05T01:40:14.316Z,1012.20
2022-10-05T01:41:13.858Z,1012.19
2022-10-05T01:43:17.880Z,1012.13
2022-10-05T01:44:17.869Z,1012.09
2022-10-05T01:46:22.456Z,1012.06
2022-10-05T01:47:21.889Z,1012.04
2022-10-05T01:49:25.909Z,1012.03
2022-10-05T01:50:25.923Z,1012.01
2022-10-05T01:52:19.401Z,1012.05
2022-10-05T01:53:18.886Z,1012.08
2022-10-05T01:55:22.878Z,1012.12
2022-10-05T01:56:22.897Z,1012.13
2022-10-05T01:58:27.427Z,1012.12
2022-10-05T01:59:26.915Z,1012.08
2022-10-05T02:01:30.992Z,1012.01
2022-10-05T02:02:31.007Z,1012.01
2022-10-05T02:05:03.244Z,1012.03
2022-10-05T02:05:34.967Z,1012.00
2022-10-05T02:07:38.990Z,1012.01
2022-10-05T02:08:39.006Z,1011.97
2022-10-05T02:10:43.494Z,1011.96
2022-10-05T02:11:43.038Z,1011.92
2022-10-05T02:13:47.035Z,1011.88
2022-10-05T02:14:47.052Z,1011.91
2022-10-05T02:16:51.542Z,1011.88
2022-10-05T02:17:51.098Z,1011.89
2022-10-05T02:19:55.083Z,1011.92
2022-10-05T02:20:55.099Z,1011.93
2022-10-05T02:22:59.590Z,1011.97
2022-10-05T02:23:59.124Z,1011.92
2022-10-05T02:26:03.154Z,1011.96
2022-10-05T02:27:03.156Z,1011.90
2022-10-05T02:29:07.658Z,1011.92
2022-10-05T02:30:07.181Z,1011.94
2022-10-05T02:32:00.115Z,1011.92
2022-10-05T02:33:00.135Z,1011.94
2022-10-05T02:35:04.624Z,1011.94
2022-10-05T02:36:04.148Z,1011.94
2022-10-05T02:37:57.730Z,1011.93
2022-10-05T02:38:57.546Z,1011.98
2022-10-05T02:41:02.049Z,1011.96
2022-10-05T02:42:01.570Z,1012.01
2022-10-05T02:44:05.583Z,1011.98
2022-10-05T02:45:05.591Z,1012.00
2022-10-05T02:47:10.087Z,1011.95
2022-10-05T02:48:09.664Z,1011.93
2022-10-05T02:50:13.680Z,1011.85
2022-10-05T02:51:13.796Z,1011.87
2022-10-05T02:53:18.195Z,1011.85
2022-10-05T02:54:17.731Z,1011.84
2022-10-05T02:56:21.741Z,1011.75
2022-10-05T02:57:21.760Z,1011.77
2022-10-05T02:59:26.249Z,1011.75
2022-10-05T03:00:25.796Z,1011.65
2022-10-05T03:02:19.325Z,1011.67
2022-10-05T03:03:19.245Z,1011.61
2022-10-05T03:04:19.266Z,1011.62
2022-10-05T03:05:19.291Z,1011.55
2022-10-05T03:06:19.314Z,1011.56
2022-10-05T03:07:19.334Z,1011.54
2022-10-05T03:08:19.362Z,1011.50
2022-10-05T03:09:19.386Z,1011.47
2022-10-05T03:10:19.408Z,1011.48
2022-10-05T03:11:19.443Z,1011.45
2022-10-05T03:12:19.454Z,1011.43
2022-10-05T03:13:19.476Z,1011.39
2022-10-05T03:14:19.501Z,1011.37
2022-10-05T03:15:19.529Z,1011.37
2022-10-05T03:16:19.610Z,1011.34
2022-10-05T03:17:19.576Z,1011.35
2022-10-05T03:18:19.593Z,1011.32
2022-10-05T03:19:19.618Z,1011.28
2022-10-05T03:20:19.645Z,1011.27
2022-10-05T03:21:19.670Z,1011.28
2022-10-05T03:22:19.693Z,1011.29
2022-10-05T03:23:19.738Z,1011.32
2022-10-05T03:24:19.736Z,1011.23
2022-10-05T03:25:19.764Z,1011.20
2022-10-05T03:26:19.783Z,1011.19
2022-10-05T03:27:19.808Z,1011.24
2022-10-05T03:28:19.860Z,1011.25
2022-10-05T03:29:19.857Z,1011.23
2022-10-05T03:30:19.878Z,1011.26
2022-10-05T03:31:19.948Z,1011.27
2022-10-05T03:32:19.936Z,1011.23
2022-10-05T03:33:19.951Z,1011.21
2022-10-05T03:34:19.990Z,1011.18
2022-10-05T03:35:19.996Z,1011.15
2022-10-05T03:36:20.024Z,1011.16
2022-10-05T03:37:20.046Z,1011.18
2022-10-05T03:38:20.095Z,1011.17
2022-10-05T03:39:20.094Z,1011.13
2022-10-05T03:40:20.112Z,1011.13
2022-10-05T03:41:20.136Z,1011.14
2022-10-05T03:42:20.158Z,1011.17
2022-10-05T03:43:20.180Z,1011.14
2022-10-05T03:44:20.205Z,1011.11
2022-10-05T03:45:20.276Z,1011.09
2022-10-05T03:46:20.341Z,1011.12
2022-10-05T03:47:20.286Z,1011.05
2022-10-05T03:48:20.301Z,1011.05
2022-10-05T03:49:20.324Z,1011.06
2022-10-05T03:50:20.347Z,1011.05
2022-10-05T03:51:20.371Z,1011.02
2022-10-05T03:52:20.393Z,1010.99
2022-10-05T03:53:20.438Z,1010.95
2022-10-05T03:54:20.497Z,1010.95
2022-10-05T03:55:20.464Z,1010.94
2022-10-05T03:56:20.486Z,1010.94
2022-10-05T03:57:20.510Z,1010.91
2022-10-05T03:58:20.534Z,1010.89
2022-10-05T03:59:20.558Z,1010.86
2022-10-05T04:00:20.580Z,1010.84
2022-10-05T04:01:20.615Z,1010.82
2022-10-05T04:02:20.678Z,1010.81
2022-10-05T04:03:20.648Z,1010.82
2022-10-05T04:04:20.677Z,1010.82
2022-10-05T04:05:20.700Z,1010.85
2022-10-05T04:06:20.720Z,1010.81
2022-10-05T04:07:20.744Z,1010.86
2022-10-05T04:08:20.765Z,1010.80
2022-10-05T04:09:20.798Z,1010.78
2022-10-05T04:10:20.813Z,1010.76
2022-10-05T04:11:20.839Z,1010.77
2022-10-05T04:12:20.863Z,1010.77
2022-10-05T04:13:20.883Z,1010.70
2022-10-05T04:14:20.907Z,1010.69
2022-10-05T04:15:20.937Z,1010.73
2022-10-05T04:16:21.055Z,1010.71
2022-10-05T04:17:20.978Z,1010.76
2022-10-05T04:18:20.997Z,1010.71
2022-10-05T04:19:21.028Z,1010.71
2022-10-05T04:20:21.049Z,1010.73
2022-10-05T04:21:23.759Z,1010.68
2022-10-05T04:22:21.103Z,1010.66
2022-10-05T04:23:21.116Z,1010.65
2022-10-05T04:24:21.141Z,1010.68
2022-10-05T04:25:21.168Z,1010.73
2022-10-05T04:26:21.191Z,1010.71
2022-10-05T04:27:21.213Z,1010.75
2022-10-05T04:28:21.286Z,1010.72
2022-10-05T04:29:21.269Z,1010.71
2022-10-05T04:30:21.283Z,1010.75
2022-10-05T04:31:21.362Z,1010.77
2022-10-05T04:32:21.325Z,1010.78
2022-10-05T04:33:21.354Z,1010.78
2022-10-05T04:34:21.376Z,1010.78
2022-10-05T04:35:21.400Z,1010.80
2022-10-05T04:36:21.420Z,1010.83
2022-10-05T04:37:21.446Z,1010.78
2022-10-05T04:38:21.468Z,1010.82
2022-10-05T04:39:21.492Z,1010.80
2022-10-05T04:40:21.517Z,1010.80
2022-10-05T04:41:21.582Z,1010.76
2022-10-05T04:42:21.750Z,1010.75
2022-10-05T04:43:21.586Z,1010.79
2022-10-05T04:44:21.606Z,1010.77
2022-10-05T04:45:21.630Z,1010.81
2022-10-05T04:46:21.695Z,1010.88
2022-10-05T04:47:21.675Z,1010.86
2022-10-05T04:48:21.704Z,1010.87
2022-10-05T04:49:21.729Z,1010.86
2022-10-05T04:50:21.749Z,1010.84
2022-10-05T04:51:21.771Z,1010.81
2022-10-05T04:52:21.795Z,1010.82
2022-10-05T04:53:21.818Z,1010.84
2022-10-05T04:54:21.842Z,1010.83
2022-10-05T04:55:21.865Z,1010.90
2022-10-05T04:56:21.888Z,1010.90
2022-10-05T04:57:21.916Z,1010.92
2022-10-05T04:58:21.939Z,1010.97
2022-10-05T04:59:21.959Z,1010.97
2022-10-05T05:00:21.979Z,1010.95
2022-10-05T05:01:22.041Z,1010.97
2022-10-05T05:02:22.025Z,1010.93
2022-10-05T05:03:22.064Z,1010.94
2022-10-05T05:04:22.073Z,1010.99
2022-10-05T05:05:22.098Z,1010.95
2022-10-05T05:06:22.120Z,1010.88
2022-10-05T05:07:22.144Z,1010.90
2022-10-05T05:08:22.170Z,1010.93
2022-10-05T05:09:22.191Z,1010.91
2022-10-05T05:10:22.211Z,1010.94
2022-10-05T05:11:24.612Z,1010.91
2022-10-05T05:12:22.279Z,1010.93
2022-10-05T05:13:22.291Z,1010.88
2022-10-05T05:14:22.306Z,1010.87
2022-10-05T05:15:22.328Z,1010.88
2022-10-05T05:16:22.394Z,1010.91
2022-10-05T05:17:22.377Z,1010.86
2022-10-05T05:18:22.397Z,1010.88
2022-10-05T05:19:22.422Z,1010.90
2022-10-05T05:20:22.448Z,1010.93
2022-10-05T05:21:22.469Z,1010.89
2022-10-05T05:22:22.491Z,1010.94
2022-10-05T05:23:22.515Z,1010.93
2022-10-05T05:24:22.537Z,1010.93
2022-10-05T05:25:22.570Z,1010.92
2022-10-05T05:26:22.585Z,1010.94
2022-10-05T05:27:22.604Z,1010.94
2022-10-05T05:28:22.662Z,1010.97
2022-10-05T05:29:22.657Z,1010.98
2022-10-05T05:30:22.680Z,1010.94
2022-10-05T05:31:22.764Z,1010.98
2022-10-05T05:32:22.724Z,1010.95
2022-10-05T05:33:22.747Z,1010.93
2022-10-05T05:34:22.765Z,1010.92
2022-10-05T05:35:22.789Z,1010.97
2022-10-05T05:36:23.562Z,1010.98
2022-10-05T05:37:22.874Z,1010.96
2022-10-05T05:38:22.864Z,1010.96
2022-10-05T05:39:22.891Z,1010.95
2022-10-05T05:40:22.913Z,1010.94
2022-10-05T05:41:22.932Z,1010.91
2022-10-05T05:42:22.954Z,1010.93
2022-10-05T05:43:22.982Z,1010.96
2022-10-05T05:44:23.003Z,1010.99
2022-10-05T05:45:23.024Z,1010.97
2022-10-05T05:46:38.766Z,1010.96
2022-10-05T05:47:23.119Z,1010.98
2022-10-05T05:48:23.095Z,1010.96
2022-10-05T05:49:23.118Z,1011.01
2022-10-05T05:50:23.141Z,1010.97
2022-10-05T05:51:23.164Z,1010.97
2022-10-05T05:52:23.188Z,1010.95
2022-10-05T05:53:23.210Z,1010.92
2022-10-05T05:54:23.241Z,1010.88
2022-10-05T05:55:27.651Z,1010.90
2022-10-05T05:56:23.285Z,1010.93
2022-10-05T05:57:23.301Z,1010.91
2022-10-05T05:58:23.326Z,1010.90
2022-10-05T05:59:23.353Z,1010.88
2022-10-05T06:00:23.376Z,1010.90
2022-10-05T06:01:32.699Z,1010.88
2022-10-05T06:02:23.542Z,1010.89
2022-10-05T06:03:23.581Z,1010.92
2022-10-05T06:04:23.467Z,1010.91
2022-10-05T06:05:23.491Z,1010.90
2022-10-05T06:06:23.517Z,1010.93
2022-10-05T06:07:28.039Z,1010.88
2022-10-05T06:08:23.560Z,1010.88
2022-10-05T06:09:23.589Z,1010.91
2022-10-05T06:10:23.609Z,1010.95
2022-10-05T06:11:23.629Z,1010.93
2022-10-05T06:12:23.665Z,1010.96
2022-10-05T06:13:23.682Z,1010.97
2022-10-05T06:14:23.706Z,1010.94
2022-10-05T06:15:23.725Z,1010.92
2022-10-05T06:16:23.801Z,1010.89
2022-10-05T06:17:23.775Z,1010.96
2022-10-05T06:18:23.797Z,1010.95
2022-10-05T06:19:23.825Z,1010.92
2022-10-05T06:20:23.845Z,1010.93
2022-10-05T06:21:23.869Z,1010.93
2022-10-05T06:22:23.893Z,1010.93
2022-10-05T06:23:23.913Z,1010.93
2022-10-05T06:24:23.944Z,1010.97
2022-10-05T06:25:23.965Z,1011.01
2022-10-05T06:26:23.991Z,1011.04
2022-10-05T06:27:24.008Z,1011.04
2022-10-05T06:28:24.065Z,1011.01
2022-10-05T06:29:24.061Z,1011.02
2022-10-05T06:30:24.082Z,1011.02
2022-10-05T06:31:24.127Z,1011.01
2022-10-05T06:32:24.133Z,1011.04
2022-10-05T06:33:24.158Z,1011.05
2022-10-05T06:34:24.189Z,1011.05
2022-10-05T06:35:24.199Z,1011.09
2022-10-05T06:36:24.225Z,1011.05
2022-10-05T06:37:24.251Z,1011.09
2022-10-05T06:38:24.277Z,1011.10
2022-10-05T06:39:24.299Z,1011.08
2022-10-05T06:40:24.322Z,1011.08
2022-10-05T06:41:24.347Z,1011.05
2022-10-05T06:42:24.371Z,1011.09
2022-10-05T06:43:24.394Z,1011.06
2022-10-05T06:44:24.419Z,1011.06
2022-10-05T06:45:24.442Z,1011.05
2022-10-05T06:46:24.507Z,1011.03
2022-10-05T06:47:24.489Z,1011.04
2022-10-05T06:48:24.516Z,1011.01
2022-10-05T06:49:24.538Z,1011.04
2022-10-05T06:50:24.565Z,1011.00
2022-10-05T06:51:24.587Z,1011.00
2022-10-05T06:52:24.614Z,1011.06
2022-10-05T06:53:24.658Z,1011.01
2022-10-05T06:54:24.661Z,1011.03
2022-10-05T06:55:24.687Z,1011.00
2022-10-05T06:56:24.710Z,1011.02
2022-10-05T06:57:24.735Z,1011.02
2022-10-05T06:58:24.760Z,1010.98
2022-10-05T06:59:24.782Z,1011.00
2022-10-05T07:00:24.983Z,1011.00
2022-10-05T07:01:24.894Z,1011.02
2022-10-05T07:02:24.912Z,1010.97
2022-10-05T07:03:24.882Z,1011.03
2022-10-05T07:04:24.912Z,1011.00
2022-10-05T07:05:24.938Z,1010.99
2022-10-05T07:06:24.960Z,1010.96
2022-10-05T07:07:24.981Z,1010.98
2022-10-05T07:08:25.005Z,1011.00
2022-10-05T07:09:25.028Z,1010.96
2022-10-05T07:10:25.106Z,1010.96
2022-10-05T07:11:25.081Z,1010.96
2022-10-05T07:12:25.108Z,1010.93
2022-10-05T07:13:25.130Z,1010.92
2022-10-05T07:14:25.156Z,1010.89
2022-10-05T07:15:25.181Z,1010.91
2022-10-05T07:16:25.228Z,1010.93
2022-10-05T07:17:25.231Z,1010.93
2022-10-05T07:18:25.253Z,1010.95
2022-10-05T07:19:25.276Z,1010.95
2022-10-05T07:20:25.309Z,1010.97
2022-10-05T07:21:25.328Z,1011.00
2022-10-05T07:22:26.619Z,1010.99
2022-10-05T07:23:25.380Z,1010.98
2022-10-05T07:24:25.405Z,1010.98
2022-10-05T07:25:25.427Z,1010.99
2022-10-05T07:26:25.454Z,1010.98
2022-10-05T07:27:25.480Z,1010.97
2022-10-05T07:28:25.562Z,1010.98
2022-10-05T07:29:25.529Z,1010.91
2022-10-05T07:30:25.558Z,1010.91
2022-10-05T07:31:25.629Z,1010.92
2022-10-05T07:32:25.605Z,1010.93
2022-10-05T07:33:25.633Z,1010.98
2022-10-05T07:34:25.662Z,1010.96
2022-10-05T07:35:25.683Z,1010.99
2022-10-05T07:36:25.708Z,1010.99
2022-10-05T07:37:25.734Z,1011.03
2022-10-05T07:38:25.758Z,1011.05
2022-10-05T07:39:42.154Z,1011.06
2022-10-05T07:40:25.817Z,1011.02
2022-10-05T07:41:25.837Z,1011.07
2022-10-05T07:42:25.860Z,1011.06
2022-10-05T07:43:25.913Z,1011.06
2022-10-05T07:44:25.913Z,1011.10
2022-10-05T07:45:25.961Z,1011.09
2022-10-05T07:46:25.961Z,1011.15
2022-10-05T07:47:25.989Z,1011.12
2022-10-05T07:48:26.019Z,1011.15
2022-10-05T07:49:26.050Z,1011.17
2022-10-05T07:50:26.064Z,1011.16
2022-10-05T07:51:26.090Z,1011.13
2022-10-05T07:52:27.570Z,1011.12
2022-10-05T07:53:26.146Z,1011.17
2022-10-05T07:54:26.213Z,1011.17
2022-10-05T07:55:26.199Z,1011.17
2022-10-05T07:56:26.238Z,1011.15
2022-10-05T07:57:26.247Z,1011.14
2022-10-05T07:58:26.272Z,1011.21
2022-10-05T07:59:26.295Z,1011.20
2022-10-05T08:00:26.324Z,1011.22
2022-10-05T08:01:26.410Z,1011.20
2022-10-05T08:02:26.453Z,1011.20
2022-10-05T08:03:26.399Z,1011.21
2022-10-05T08:04:26.428Z,1011.18
2022-10-05T08:05:26.454Z,1011.23
2022-10-05T08:06:26.477Z,1011.22
2022-10-05T08:07:26.503Z,1011.24
2022-10-05T08:08:26.531Z,1011.25
2022-10-05T08:09:26.553Z,1011.23
2022-10-05T08:10:26.582Z,1011.23
2022-10-05T08:11:26.605Z,1011.25
2022-10-05T08:12:26.632Z,1011.22
2022-10-05T08:13:26.657Z,1011.19
2022-10-05T08:14:26.687Z,1011.16
2022-10-05T08:15:26.710Z,1011.20
2022-10-05T08:16:26.769Z,1011.18
2022-10-05T08:17:26.762Z,1011.19
2022-10-05T08:18:26.788Z,1011.16
2022-10-05T08:19:26.812Z,1011.19
2022-10-05T08:20:26.844Z,1011.19
2022-10-05T08:21:26.866Z,1011.20
2022-10-05T08:22:26.891Z,1011.17
2022-10-05T08:23:26.918Z,1011.18
2022-10-05T08:24:26.945Z,1011.16
2022-10-05T08:25:26.969Z,1011.19
2022-10-05T08:26:26.996Z,1011.17
2022-10-05T08:27:27.027Z,1011.16
2022-10-05T08:28:27.100Z,1011.22
2022-10-05T08:29:27.073Z,1011.20
2022-10-05T08:30:27.102Z,1011.23
2022-10-05T08:31:27.188Z,1011.21
2022-10-05T08:32:27.152Z,1011.17
2022-10-05T08:33:27.184Z,1011.22
2022-10-05T08:34:27.202Z,1011.22
2022-10-05T08:35:27.230Z,1011.26
2022-10-05T08:36:27.256Z,1011.21
2022-10-05T08:37:27.291Z,1011.31
2022-10-05T08:38:27.307Z,1011.27
2022-10-05T08:39:27.333Z,1011.19
2022-10-05T08:40:27.359Z,1011.25
2022-10-05T08:41:27.389Z,1011.25
2022-10-05T08:42:27.424Z,1011.26
2022-10-05T08:43:30.587Z,1011.28
2022-10-05T08:44:27.462Z,1011.28
2022-10-05T08:45:27.485Z,1011.31
2022-10-05T08:46:27.620Z,1011.28
2022-10-05T08:47:27.539Z,1011.32
2022-10-05T08:48:27.564Z,1011.28
2022-10-05T08:49:28.982Z,1011.31
2022-10-05T08:50:27.617Z,1011.35
2022-10-05T08:51:27.641Z,1011.33
2022-10-05T08:52:27.668Z,1011.32
2022-10-05T08:53:27.693Z,1011.31
2022-10-05T08:54:27.718Z,1011.32
2022-10-05T08:55:27.745Z,1011.29
2022-10-05T08:56:28.917Z,1011.25
2022-10-05T08:57:27.797Z,1011.27
2022-10-05T08:58:27.836Z,1011.25
2022-10-05T08:59:27.849Z,1011.28
2022-10-05T09:00:27.874Z,1011.28
2022-10-05T09:01:27.921Z,1011.28
2022-10-05T09:02:27.980Z,1011.28
2022-10-05T09:03:32.152Z,1011.21
2022-10-05T09:04:27.975Z,1011.28
2022-10-05T09:05:28.001Z,1011.26
2022-10-05T09:06:28.029Z,1011.24
2022-10-05T09:07:28.088Z,1011.21
2022-10-05T09:08:28.077Z,1011.23
2022-10-05T09:09:28.103Z,1011.26
2022-10-05T09:10:28.134Z,1011.25
2022-10-05T09:11:28.198Z,1011.25
2022-10-05T09:12:28.199Z,1011.29
2022-10-05T09:13:28.209Z,1011.26
2022-10-05T09:14:28.242Z,1011.19
2022-10-05T09:15:28.293Z,1011.20
2022-10-05T09:16:28.289Z,1011.23
2022-10-05T09:17:28.316Z,1011.18
2022-10-05T09:18:28.341Z,1011.23
2022-10-05T09:19:28.389Z,1011.24
2022-10-05T09:20:28.398Z,1011.22
2022-10-05T09:21:28.421Z,1011.20
2022-10-05T09:22:28.446Z,1011.20
2022-10-05T09:23:28.471Z,1011.19
2022-10-05T09:24:28.501Z,1011.21
2022-10-05T09:25:28.526Z,1011.14
2022-10-05T09:26:28.559Z,1011.12
2022-10-05T09:27:28.581Z,1011.14
2022-10-05T09:28:28.636Z,1011.12
2022-10-05T09:29:28.631Z,1011.14
2022-10-05T09:30:28.672Z,1011.11
2022-10-05T09:31:28.726Z,1011.10
2022-10-05T09:32:28.713Z,1011.11
2022-10-05T09:33:28.741Z,1011.10
2022-10-05T09:34:28.765Z,1011.09
2022-10-05T09:35:28.803Z,1011.10
2022-10-05T09:36:28.821Z,1011.08
2022-10-05T09:37:28.848Z,1011.11
2022-10-05T09:38:28.876Z,1011.11
2022-10-05T09:39:28.905Z,1011.11
2022-10-05T09:40:28.940Z,1011.06
2022-10-05T09:41:28.958Z,1011.06
2022-10-05T09:42:28.985Z,1011.04
2022-10-05T09:43:29.026Z,1011.05
2022-10-05T09:44:29.039Z,1011.06
2022-10-05T09:45:29.067Z,1011.07
2022-10-05T09:46:29.196Z,1011.05
2022-10-05T09:47:29.122Z,1011.03
2022-10-05T09:48:29.155Z,1010.99
2022-10-05T09:49:29.181Z,1010.95
2022-10-05T09:50:29.203Z,1010.97
2022-10-05T09:51:29.234Z,1010.98
2022-10-05T09:52:29.257Z,1010.99
2022-10-05T09:53:29.291Z,1010.96
2022-10-05T09:54:29.314Z,1010.97
2022-10-05T09:55:29.348Z,1010.96
2022-10-05T09:56:29.375Z,1010.95
2022-10-05T09:57:29.405Z,1010.92
2022-10-05T09:58:29.436Z,1010.88
2022-10-05T09:59:29.454Z,1010.91
2022-10-05T10:00:29.484Z,1010.89
2022-10-05T10:01:36.811Z,1010.93
2022-10-05T10:03:23.063Z,1010.89
2022-10-05T10:04:22.675Z,1010.90
2022-10-05T10:06:26.701Z,1010.90
2022-10-05T10:07:26.718Z,1010.83
2022-10-05T10:09:33.071Z,1010.81
2022-10-05T10:10:30.758Z,1010.79
2022-10-05T10:12:23.705Z,1010.82
2022-10-05T10:13:23.732Z,1010.81
2022-10-05T10:15:28.225Z,1010.76
2022-10-05T10:16:27.766Z,1010.68
2022-10-05T10:18:32.382Z,1010.74
2022-10-05T10:19:32.009Z,1010.72
2022-10-05T10:21:36.507Z,1010.74
2022-10-05T10:22:39.596Z,1010.76
2022-10-05T10:24:40.071Z,1010.75
2022-10-05T10:25:40.094Z,1010.76
2022-10-05T10:27:46.250Z,1010.65
2022-10-05T10:28:44.143Z,1010.70
2022-10-05T10:30:48.218Z,1010.68
2022-10-05T10:31:48.487Z,1010.64
2022-10-05T10:33:52.693Z,1010.62
2022-10-05T10:34:52.246Z,1010.65
2022-10-05T10:36:56.303Z,1010.62
2022-10-05T10:37:56.319Z,1010.60
2022-10-05T10:40:01.321Z,1010.61
2022-10-05T10:41:00.363Z,1010.63
2022-10-05T10:43:04.390Z,1010.58
2022-10-05T10:44:04.407Z,1010.58
2022-10-05T10:46:08.941Z,1010.62
2022-10-05T10:47:08.466Z,1010.64
2022-10-05T10:49:12.474Z,1010.56
2022-10-05T10:50:12.495Z,1010.55
2022-10-05T10:52:05.979Z,1010.55
2022-10-05T10:53:05.465Z,1010.49
2022-10-05T10:55:09.550Z,1010.60
2022-10-05T10:56:09.533Z,1010.54
2022-10-05T10:58:16.281Z,1010.50
2022-10-05T10:59:13.580Z,1010.53
2022-10-05T11:01:17.626Z,1010.54
2022-10-05T11:02:17.751Z,1010.52
2022-10-05T11:04:22.131Z,1010.53
2022-10-05T11:05:21.671Z,1010.51
2022-10-05T11:07:25.703Z,1010.54
2022-10-05T11:08:25.723Z,1010.51
2022-10-05T11:10:30.221Z,1010.48
2022-10-05T11:11:29.762Z,1010.48
2022-10-05T11:13:33.787Z,1010.50
2022-10-05T11:14:33.840Z,1010.49
2022-10-05T11:16:38.312Z,1010.42
2022-10-05T11:17:37.862Z,1010.43
2022-10-05T11:20:02.494Z,1010.40
2022-10-05T11:20:41.901Z,1010.36
2022-10-05T11:22:35.389Z,1010.42
2022-10-05T11:23:38.810Z,1010.34
2022-10-05T11:25:38.889Z,1010.33
2022-10-05T11:26:38.938Z,1010.28
2022-10-05T11:28:43.466Z,1010.26
2022-10-05T11:29:42.966Z,1010.29
2022-10-05T11:31:35.980Z,1010.23
2022-10-05T11:32:35.920Z,1010.19
2022-10-05T11:34:40.422Z,1010.16
2022-10-05T11:35:39.970Z,1010.14
2022-10-05T11:37:43.986Z,1010.13
2022-10-05T11:38:44.004Z,1010.15
2022-10-05T11:40:37.489Z,1010.07
2022-10-05T11:41:37.179Z,1010.00
2022-10-05T11:43:41.195Z,1009.97
2022-10-05T11:44:41.212Z,1010.00
2022-10-05T11:46:45.777Z,1009.90
2022-10-05T11:47:45.258Z,1009.86
2022-10-05T11:49:49.278Z,1009.84
2022-10-05T11:50:49.303Z,1009.87
2022-10-05T11:52:53.804Z,1009.81
2022-10-05T11:53:53.344Z,1009.84
2022-10-05T11:55:57.382Z,1009.69
2022-10-05T11:56:57.703Z,1009.71
2022-10-05T11:59:03.397Z,1009.69
2022-10-05T12:00:01.446Z,1009.71
2022-10-05T12:01:54.400Z,1009.63
2022-10-05T12:02:54.482Z,1009.64
2022-10-05T12:06:02.939Z,1009.59
2022-10-05T12:07:02.450Z,1009.59
2022-10-05T12:09:06.474Z,1009.65
2022-10-05T12:10:06.490Z,1009.55
2022-10-05T12:11:59.974Z,1009.50
2022-10-05T12:12:59.861Z,1009.49
2022-10-05T12:15:03.484Z,1009.47
2022-10-05T12:16:03.514Z,1009.47
2022-10-05T12:18:08.005Z,1009.45
2022-10-05T12:19:07.546Z,1009.50
2022-10-05T12:21:11.572Z,1009.41
2022-10-05T12:22:11.590Z,1009.31
2022-10-05T12:24:16.091Z,1009.32
2022-10-05T12:25:15.633Z,1009.31
2022-10-05T12:27:19.657Z,1009.25
2022-10-05T12:28:19.704Z,1009.29
2022-10-05T12:30:24.193Z,1009.25
2022-10-05T12:31:23.777Z,1009.24
2022-10-05T12:33:27.776Z,1009.23
2022-10-05T12:34:27.798Z,1009.23
2022-10-05T12:36:52.439Z,1009.10
2022-10-05T12:37:31.864Z,1009.13
2022-10-05T12:39:35.887Z,1009.08
2022-10-05T12:40:35.906Z,1009.15
2022-10-05T12:42:29.403Z,1009.03
2022-10-05T12:43:28.884Z,1009.02
2022-10-05T12:45:32.957Z,1009.00
2022-10-05T12:46:32.925Z,1009.02
2022-10-05T12:48:37.436Z,1008.99
2022-10-05T12:49:36.977Z,1008.95
2022-10-05T12:51:41.000Z,1008.89
2022-10-05T12:52:41.021Z,1008.93
2022-10-05T12:54:45.514Z,1008.89
2022-10-05T12:55:45.071Z,1009.00
2022-10-05T12:56:45.099Z,1008.95
2022-10-05T12:57:45.128Z,1008.86
2022-10-05T12:58:45.158Z,1008.83
2022-10-05T12:59:45.181Z,1008.88
2022-10-05T13:00:45.235Z,1008.92
2022-10-05T13:01:45.271Z,1008.87
2022-10-05T13:02:45.270Z,1008.86
2022-10-05T13:03:45.296Z,1008.94
2022-10-05T13:04:45.327Z,1008.86
2022-10-05T13:05:45.356Z,1008.90
2022-10-05T13:06:45.383Z,1008.90
2022-10-05T13:07:45.409Z,1008.87
2022-10-05T13:08:45.439Z,1008.86
2022-10-05T13:09:45.470Z,1008.86
2022-10-05T13:10:45.498Z,1008.82
2022-10-05T13:11:45.527Z,1008.79
2022-10-05T13:12:45.552Z,1008.77
2022-10-05T13:13:45.587Z,1008.80
2022-10-05T13:14:45.617Z,1008.84
2022-10-05T13:15:45.637Z,1008.77
2022-10-05T13:16:45.739Z,1008.81
2022-10-05T13:17:45.696Z,1008.77
2022-10-05T13:18:45.723Z,1008.78
2022-10-05T13:19:45.749Z,1008.81
2022-10-05T13:20:45.781Z,1008.80
2022-10-05T13:21:45.811Z,1008.80
2022-10-05T13:22:45.837Z,1008.79
2022-10-05T13:23:45.866Z,1008.78
2022-10-05T13:24:45.890Z,1008.78
2022-10-05T13:25:45.922Z,1008.78
2022-10-05T13:26:45.947Z,1008.77
2022-10-05T13:27:45.974Z,1008.78
2022-10-05T13:28:46.010Z,1008.74
2022-10-05T13:29:46.033Z,1008.75
2022-10-05T13:30:46.064Z,1008.78
2022-10-05T13:31:46.124Z,1008.79
2022-10-05T13:32:46.117Z,1008.75
2022-10-05T13:33:46.152Z,1008.76
2022-10-05T13:34:46.172Z,1008.75
2022-10-05T13:35:46.202Z,1008.74
2022-10-05T13:36:46.231Z,1008.74
2022-10-05T13:37:46.259Z,1008.74
2022-10-05T13:38:46.286Z,1008.72
2022-10-05T13:39:46.310Z,1008.73
2022-10-05T13:40:46.339Z,1008.70
2022-10-05T13:41:46.371Z,1008.65
2022-10-05T13:42:46.395Z,1008.66
2022-10-05T13:43:46.426Z,1008.62
2022-10-05T13:44:46.457Z,1008.59
2022-10-05T13:45:46.538Z,1008.59
2022-10-05T13:46:46.511Z,1008.58
2022-10-05T13:47:46.540Z,1008.54
2022-10-05T13:48:46.570Z,1008.53
2022-10-05T13:50:46.625Z,1008.54
2022-10-05T13:51:46.655Z,1008.50
2022-10-05T13:52:46.680Z,1008.46
2022-10-05T13:53:46.711Z,1008.46
2022-10-05T13:54:46.736Z,1008.45
2022-10-05T13:55:46.765Z,1008.43
2022-10-05T13:56:46.795Z,1008.38
2022-10-05T13:57:46.820Z,1008.41
2022-10-05T13:58:46.848Z,1008.39
2022-10-05T13:59:46.916Z,1008.37
2022-10-05T14:00:46.904Z,1008.34
2022-10-05T14:01:47.004Z,1008.40
2022-10-05T14:02:46.961Z,1008.36
2022-10-05T14:03:46.989Z,1008.29
2022-10-05T14:04:47.023Z,1008.37
2022-10-05T14:05:47.047Z,1008.32
2022-10-05T14:06:47.072Z,1008.35
2022-10-05T14:07:47.117Z,1008.28
2022-10-05T14:08:47.133Z,1008.25
2022-10-05T14:09:47.161Z,1008.32